createdAt,value
2022-08-07T00:02:35.209Z,3.22
2022-08-07T00:04:11.403Z,2.72
2022-08-07T00:06:51.763Z,3.38
2022-08-07T00:09:33.770Z,14.95
2022-08-07T00:12:06.395Z,20.27
2022-08-07T00:14:36.385Z,7.72
2022-08-07T00:17:07.472Z,3.70
2022-08-07T00:20:02.566Z,2.60
2022-08-07T00:22:35.211Z,1.48
2022-08-07T00:25:11.165Z,1.40
2022-08-07T00:27:52.509Z,1.38
2022-08-07T00:30:27.095Z,0.90
2022-08-07T00:33:04.482Z,1.52
2022-08-07T00:35:38.286Z,0.88
2022-08-07T00:38:09.128Z,1.33
2022-08-07T00:40:43.893Z,1.10
2022-08-07T00:44:01.374Z,0.90
2022-08-07T00:48:42.191Z,1.80
2022-08-07T00:51:13.469Z,0.82
2022-08-07T00:53:50.482Z,0.93
2022-08-07T00:56:30.172Z,1.30
2022-08-07T00:59:01.687Z,5.68
2022-08-07T01:01:44.126Z,11.07
2022-08-07T01:04:24.690Z,10.70
2022-08-07T01:06:57.392Z,1.73
2022-08-07T01:10:04.538Z,1.30
2022-08-07T01:12:29.800Z,1.92
2022-08-07T01:15:03.911Z,1.60
2022-08-07T01:17:36.046Z,3.97
2022-08-07T01:20:16.839Z,0.82
2022-08-07T01:22:56.565Z,5.63
2022-08-07T01:25:56.140Z,2.22
2022-08-07T01:28:27.612Z,1.35
2022-08-07T01:31:00.550Z,0.70
2022-08-07T01:33:55.050Z,0.85
2022-08-07T01:36:36.437Z,0.52
2022-08-07T01:39:16.566Z,0.77
2022-08-07T01:42:36.861Z,0.90
2022-08-07T01:44:50.183Z,0.70
2022-08-07T01:48:20.014Z,0.60
2022-08-07T01:50:14.654Z,0.77
2022-08-07T01:52:49.440Z,0.32
2022-08-07T01:55:30.527Z,1.63
2022-08-07T01:58:29.016Z,0.85
2022-08-07T02:01:59.374Z,0.70
2022-08-07T02:04:15.332Z,0.70
2022-08-07T02:06:52.254Z,0.75
2022-08-07T02:09:33.809Z,2.97
2022-08-07T02:12:18.500Z,0.98
2022-08-07T02:14:56.917Z,1.58
2022-08-07T02:17:35.436Z,1.02
2022-08-07T02:20:17.209Z,1.00
2022-08-07T02:22:55.468Z,0.80
2022-08-07T02:26:11.399Z,1.98
2022-08-07T02:28:25.377Z,1.33
2022-08-07T02:31:10.137Z,1.00
2022-08-07T02:34:03.979Z,0.80
2022-08-07T02:36:51.133Z,1.05
2022-08-07T02:39:42.440Z,1.02
2022-08-07T02:42:16.548Z,0.95
2022-08-07T02:44:52.785Z,0.90
2022-08-07T02:47:25.581Z,0.95
2022-08-07T02:50:05.312Z,1.08
2022-08-07T02:52:44.150Z,1.75
2022-08-07T02:55:28.628Z,1.23
2022-08-07T02:58:19.060Z,1.08
2022-08-07T03:03:29.474Z,1.05
2022-08-07T03:06:16.494Z,1.77
2022-08-07T03:08:56.752Z,1.48
2022-08-07T03:11:28.261Z,1.27
2022-08-07T03:14:01.573Z,1.73
2022-08-07T03:16:34.456Z,1.88
2022-08-07T03:21:36.546Z,1.27
2022-08-07T03:24:20.658Z,1.90
2022-08-07T03:27:05.656Z,2.00
2022-08-07T03:29:54.124Z,1.50
2022-08-07T03:32:38.751Z,2.45
2022-08-07T03:35:18.353Z,1.83
2022-08-07T03:38:04.807Z,1.85
2022-08-07T03:40:37.232Z,1.70
2022-08-07T03:43:14.491Z,1.52
2022-08-07T03:45:53.657Z,1.42
2022-08-07T03:48:30.734Z,1.70
2022-08-07T03:51:03.775Z,1.77
2022-08-07T03:54:05.782Z,1.75
2022-08-07T03:56:35.481Z,2.83
2022-08-07T03:59:13.399Z,1.98
2022-08-07T04:01:48.288Z,1.73
2022-08-07T04:04:24.148Z,1.63
2022-08-07T04:07:00.129Z,2.28
2022-08-07T04:09:44.570Z,2.40
2022-08-07T04:12:25.027Z,2.35
2022-08-07T04:15:01.130Z,2.17
2022-08-07T04:18:58.180Z,2.20
2022-08-07T04:20:26.058Z,2.65
2022-08-07T04:23:01.178Z,2.40
2022-08-07T04:25:42.200Z,2.60
2022-08-07T04:28:15.757Z,6.00
2022-08-07T04:30:56.987Z,4.63
2022-08-07T04:33:32.777Z,3.40
2022-08-07T04:36:10.070Z,3.13
2022-08-07T04:38:41.785Z,3.17
2022-08-07T04:41:18.196Z,2.33
2022-08-07T04:44:12.928Z,3.15
2022-08-07T04:47:11.130Z,1.80
2022-08-07T04:50:19.458Z,1.50
2022-08-07T04:54:05.826Z,1.75
2022-08-07T04:58:09.810Z,1.77
2022-08-07T05:00:10.703Z,1.70
2022-08-07T05:02:37.305Z,1.80
2022-08-07T05:05:53.291Z,2.00
2022-08-07T05:08:59.225Z,2.08
2022-08-07T05:11:56.862Z,1.90
2022-08-07T05:14:53.904Z,1.73
2022-08-07T05:17:50.938Z,1.85
2022-08-07T05:20:28.005Z,2.20
2022-08-07T05:23:16.179Z,1.75
2022-08-07T05:26:11.802Z,2.33
2022-08-07T05:28:48.458Z,1.98
2022-08-07T05:31:34.933Z,2.42
2022-08-07T05:34:15.671Z,2.47
2022-08-07T05:36:53.600Z,2.45
2022-08-07T05:40:13.416Z,1.85
2022-08-07T05:42:34.422Z,2.00
2022-08-07T05:45:26.379Z,2.08
2022-08-07T05:48:06.650Z,1.98
2022-08-07T05:50:43.361Z,2.53
2022-08-07T05:54:12.531Z,2.03
2022-08-07T05:56:08.404Z,1.98
2022-08-07T05:58:52.361Z,2.13
2022-08-07T06:01:34.848Z,2.08
2022-08-07T06:04:10.194Z,2.47
2022-08-07T06:06:46.316Z,2.42
2022-08-07T06:09:20.576Z,2.28
2022-08-07T06:12:11.535Z,2.15
2022-08-07T06:14:49.467Z,2.17
2022-08-07T06:17:22.483Z,2.58
2022-08-07T06:20:05.626Z,2.53
2022-08-07T06:22:40.230Z,2.13
2022-08-07T06:25:34.918Z,2.40
2022-08-07T06:28:14.920Z,2.25
2022-08-07T06:30:50.811Z,2.30
2022-08-07T06:33:26.215Z,2.35
2022-08-07T06:36:12.777Z,3.00
2022-08-07T06:40:13.042Z,2.92
2022-08-07T06:42:01.879Z,2.85
2022-08-07T06:44:54.415Z,2.28
2022-08-07T06:47:27.149Z,2.33
2022-08-07T06:50:00.020Z,2.22
2022-08-07T06:55:34.199Z,2.33
2022-08-07T06:58:16.692Z,2.63
2022-08-07T07:01:00.596Z,2.40
2022-08-07T07:03:49.018Z,2.40
2022-08-07T07:06:26.046Z,2.95
2022-08-07T07:08:58.163Z,4.40
2022-08-07T07:12:08.937Z,4.50
2022-08-07T07:14:22.386Z,4.85
2022-08-07T07:16:56.218Z,4.38
2022-08-07T07:19:55.020Z,3.50
2022-08-07T07:22:36.093Z,3.90
2022-08-07T07:26:30.591Z,3.58
2022-08-07T07:28:42.496Z,3.53
2022-08-07T07:31:12.587Z,3.55
2022-08-07T07:33:56.474Z,4.10
2022-08-07T07:36:32.246Z,4.20
2022-08-07T07:39:04.397Z,4.90
2022-08-07T07:42:01.903Z,4.55
2022-08-07T07:44:29.485Z,4.45
2022-08-07T07:47:14.014Z,4.50
2022-08-07T07:50:34.583Z,4.75
2022-08-07T07:52:40.219Z,3.90
2022-08-07T07:55:11.840Z,5.20
2022-08-07T07:57:52.916Z,4.70
2022-08-07T08:00:29.448Z,5.15
2022-08-07T08:03:16.551Z,5.30
2022-08-07T08:06:06.627Z,4.63
2022-08-07T08:08:44.792Z,4.72
2022-08-07T08:11:47.377Z,4.55
2022-08-07T08:14:09.171Z,4.85
2022-08-07T08:16:50.232Z,4.45
2022-08-07T08:20:18.198Z,4.00
2022-08-07T08:22:37.457Z,4.13
2022-08-07T08:25:48.992Z,4.40
2022-08-07T08:28:37.614Z,4.63
2022-08-07T08:31:29.951Z,4.93
2022-08-07T08:34:12.522Z,4.38
2022-08-07T08:36:59.424Z,4.38
2022-08-07T08:39:39.019Z,3.90
2022-08-07T08:42:27.930Z,5.00
2022-08-07T08:45:13.341Z,3.80
2022-08-07T08:48:07.394Z,3.72
2022-08-07T08:50:46.908Z,4.68
2022-08-07T08:53:40.126Z,3.67
2022-08-07T08:56:32.263Z,4.25
2022-08-07T08:59:27.716Z,3.70
2022-08-07T09:02:34.594Z,3.95
2022-08-07T09:05:26.706Z,4.00
2022-08-07T09:08:40.138Z,4.30
2022-08-07T09:11:24.822Z,3.58
2022-08-07T09:14:40.841Z,4.10
2022-08-07T09:17:59.585Z,3.42
2022-08-07T09:21:13.813Z,3.53
2022-08-07T09:24:32.199Z,3.35
2022-08-07T09:27:27.377Z,3.97
2022-08-07T09:30:08.402Z,3.95
2022-08-07T09:32:39.583Z,3.45
2022-08-07T09:36:00.983Z,3.60
2022-08-07T09:38:28.037Z,3.45
2022-08-07T09:41:04.072Z,3.08
2022-08-07T09:44:05.525Z,2.97
2022-08-07T09:47:55.247Z,3.25
2022-08-07T09:50:35.979Z,3.33
2022-08-07T09:53:12.564Z,3.80
2022-08-07T09:56:06.904Z,4.53
2022-08-07T09:59:07.799Z,5.93
2022-08-07T10:02:06.224Z,5.80
2022-08-07T10:05:12.407Z,4.10
2022-08-07T10:08:21.431Z,3.85
2022-08-07T10:11:16.741Z,3.45
2022-08-07T10:14:02.336Z,3.60
2022-08-07T10:16:51.721Z,3.97
2022-08-07T10:19:45.488Z,5.00
2022-08-07T10:22:45.329Z,4.03
2022-08-07T10:25:42.224Z,5.15
2022-08-07T10:28:37.043Z,4.22
2022-08-07T10:31:40.041Z,3.97
2022-08-07T10:34:34.865Z,4.55
2022-08-07T10:37:48.702Z,4.43
2022-08-07T10:40:43.448Z,4.15
2022-08-07T10:43:34.358Z,4.22
2022-08-07T10:46:15.805Z,5.57
2022-08-07T10:48:59.560Z,5.10
2022-08-07T10:52:02.320Z,4.93
2022-08-07T10:54:39.492Z,5.22
2022-08-07T10:57:34.637Z,5.45
2022-08-07T11:00:36.177Z,5.30
2022-08-07T11:03:19.483Z,6.45
2022-08-07T11:06:08.522Z,7.93
2022-08-07T11:08:54.440Z,5.40
2022-08-07T11:11:35.705Z,6.30
2022-08-07T11:14:57.561Z,6.15
2022-08-07T11:17:45.556Z,6.10
2022-08-07T11:20:24.367Z,4.88
2022-08-07T11:23:30.315Z,5.00
2022-08-07T11:26:20.626Z,4.13
2022-08-07T11:29:41.883Z,4.18
2022-08-07T11:32:53.667Z,4.43
2022-08-07T11:35:59.746Z,3.30
2022-08-07T11:38:57.401Z,3.70
2022-08-07T11:42:01.921Z,4.38
2022-08-07T11:44:52.340Z,4.40
2022-08-07T11:47:39.221Z,3.70
2022-08-07T11:50:57.773Z,2.78
2022-08-07T11:54:09.754Z,3.58
2022-08-07T11:57:19.201Z,3.40
2022-08-07T12:00:19.073Z,2.97
2022-08-07T12:03:44.174Z,3.40
2022-08-07T12:06:37.673Z,3.70
2022-08-07T12:09:39.262Z,3.50
2022-08-07T12:12:18.926Z,3.72
2022-08-07T12:15:01.158Z,3.15
2022-08-07T12:17:58.716Z,3.15
2022-08-07T12:24:04.825Z,3.45
2022-08-07T12:26:41.971Z,2.95
2022-08-07T12:29:38.358Z,2.42
2022-08-07T12:32:15.054Z,2.30
2022-08-07T12:34:49.157Z,5.53
2022-08-07T12:38:08.989Z,5.43
2022-08-07T12:40:47.429Z,3.85
2022-08-07T12:44:03.838Z,2.53
2022-08-07T12:46:26.271Z,3.08
2022-08-07T12:49:39.544Z,3.55
2022-08-07T12:52:18.044Z,3.42
2022-08-07T12:55:03.904Z,4.25
2022-08-07T12:58:00.891Z,6.95
2022-08-07T13:00:50.046Z,6.38
2022-08-07T13:04:01.941Z,7.45
2022-08-07T13:06:54.190Z,7.00
2022-08-07T13:10:20.478Z,5.95
2022-08-07T13:15:54.066Z,8.70
2022-08-07T13:18:36.608Z,17.95
2022-08-07T13:21:37.725Z,10.32
2022-08-07T13:24:25.813Z,8.57
2022-08-07T13:28:06.273Z,5.82
2022-08-07T13:30:40.285Z,5.38
2022-08-07T13:34:30.086Z,5.60
2022-08-07T13:36:25.696Z,7.78
2022-08-07T13:39:12.684Z,8.50
2022-08-07T13:41:54.647Z,6.55
2022-08-07T13:44:34.565Z,9.02
2022-08-07T13:47:15.848Z,6.97
2022-08-07T13:50:33.176Z,6.18
2022-08-07T13:52:47.860Z,6.68
2022-08-07T13:55:26.320Z,6.32
2022-08-07T13:58:32.014Z,5.10
2022-08-07T14:01:12.462Z,8.05
2022-08-07T14:04:05.663Z,6.55
2022-08-07T14:06:38.597Z,5.10
2022-08-07T14:10:00.435Z,7.50
2022-08-07T14:12:10.548Z,5.55
2022-08-07T14:14:44.743Z,6.72
2022-08-07T14:17:51.563Z,5.38
2022-08-07T14:20:42.942Z,7.22
2022-08-07T14:23:10.624Z,7.93
2022-08-07T14:25:45.861Z,8.32
2022-08-07T14:28:33.214Z,12.25
2022-08-07T14:31:13.706Z,8.35
2022-08-07T14:33:48.761Z,14.07
2022-08-07T14:36:21.795Z,9.10
2022-08-07T14:38:56.892Z,7.60
2022-08-07T14:42:20.568Z,7.40
2022-08-07T14:44:28.471Z,6.47
2022-08-07T14:49:58.998Z,5.63
2022-08-07T14:52:35.474Z,6.35
2022-08-07T14:55:09.203Z,6.60
2022-08-07T14:57:58.585Z,6.90
2022-08-07T15:00:35.749Z,5.95
2022-08-07T15:06:04.159Z,5.75
2022-08-07T15:08:49.920Z,10.00
2022-08-07T15:11:53.411Z,6.10
2022-08-07T15:14:30.689Z,7.57
2022-08-07T15:17:12.889Z,9.40
2022-08-07T15:20:32.600Z,9.48
2022-08-07T15:22:56.833Z,10.57
2022-08-07T15:25:38.783Z,8.50
2022-08-07T15:28:35.159Z,6.05
2022-08-07T15:31:08.358Z,6.35
2022-08-07T15:33:42.982Z,6.60
2022-08-07T15:36:15.435Z,5.47
2022-08-07T15:42:42.296Z,7.47
2022-08-07T15:44:58.622Z,6.43
2022-08-07T15:48:00.306Z,6.97
2022-08-07T15:50:37.669Z,6.60
2022-08-07T15:53:51.971Z,7.05
2022-08-07T15:56:24.601Z,7.28
2022-08-07T15:59:00.566Z,7.22
2022-08-07T16:01:39.385Z,9.55
2022-08-07T16:04:15.783Z,7.25
2022-08-07T16:06:55.583Z,15.57
2022-08-07T16:09:42.109Z,7.93
2022-08-07T16:12:29.166Z,8.13
2022-08-07T16:15:05.629Z,7.15
2022-08-07T16:18:03.727Z,8.73
2022-08-07T16:20:41.634Z,6.88
2022-08-07T16:23:25.155Z,5.47
2022-08-07T16:26:14.640Z,5.93
2022-08-07T16:30:05.456Z,7.18
2022-08-07T16:32:07.215Z,6.45
2022-08-07T16:35:52.167Z,7.30
2022-08-07T16:39:00.738Z,6.97
2022-08-07T16:41:41.473Z,6.05
2022-08-07T16:45:03.816Z,5.20
2022-08-07T16:47:52.938Z,5.55
2022-08-07T16:51:22.670Z,5.65
2022-08-07T16:54:32.907Z,5.18
2022-08-07T16:58:00.803Z,5.13
2022-08-07T17:00:19.298Z,5.97
2022-08-07T17:06:29.557Z,8.18
2022-08-07T17:10:06.560Z,4.45
2022-08-07T17:12:44.766Z,5.22
2022-08-07T17:15:16.372Z,6.75
2022-08-07T17:18:01.030Z,6.45
2022-08-07T17:23:38.813Z,5.63
2022-08-07T17:26:34.873Z,4.85
2022-08-07T17:30:16.160Z,7.15
2022-08-07T17:32:49.505Z,7.13
2022-08-07T17:35:56.066Z,6.35
2022-08-07T17:38:51.442Z,7.70
2022-08-07T17:42:04.102Z,6.60
2022-08-07T17:44:49.816Z,7.85
2022-08-07T17:47:42.701Z,9.35
2022-08-07T17:50:20.424Z,6.90
2022-08-07T17:54:00.628Z,8.00
2022-08-07T17:56:28.759Z,5.97
2022-08-07T17:59:03.913Z,7.88
2022-08-07T18:02:05.684Z,7.47
2022-08-07T18:05:21.324Z,6.00
2022-08-07T18:08:15.453Z,5.78
2022-08-07T18:12:12.070Z,4.78
2022-08-07T18:14:09.242Z,5.28
2022-08-07T18:16:57.813Z,7.10
2022-08-07T18:21:12.396Z,6.25
2022-08-07T18:22:42.414Z,7.20
2022-08-07T18:25:40.307Z,5.70
2022-08-07T18:28:35.434Z,8.02
2022-08-07T18:31:18.647Z,5.07
2022-08-07T18:34:37.225Z,5.65
2022-08-07T18:37:09.333Z,5.90
2022-08-07T18:40:06.786Z,5.63
2022-08-07T18:43:36.832Z,8.48
2022-08-07T18:46:30.830Z,6.93
2022-08-07T18:50:32.680Z,7.85
2022-08-07T18:52:54.280Z,8.73
2022-08-07T18:55:59.809Z,5.82
2022-08-07T18:58:51.783Z,6.30
2022-08-07T19:02:18.161Z,6.82
2022-08-07T19:04:39.708Z,8.05
2022-08-07T19:07:51.664Z,5.72
2022-08-07T19:10:53.353Z,4.15
2022-08-07T19:13:49.935Z,5.20
2022-08-07T19:17:05.890Z,6.07
2022-08-07T19:19:37.480Z,5.32
2022-08-07T19:22:30.959Z,6.30
2022-08-07T19:25:06.486Z,6.70
2022-08-07T19:28:29.726Z,7.30
2022-08-07T19:30:55.809Z,7.47
2022-08-07T19:33:35.014Z,5.50
2022-08-07T19:38:53.394Z,6.72
2022-08-07T19:44:22.126Z,7.85
2022-08-07T19:47:10.830Z,6.93
2022-08-07T19:49:58.372Z,4.93
2022-08-07T19:52:34.060Z,3.50
2022-08-07T19:55:05.878Z,4.18
2022-08-07T19:58:01.098Z,5.95
2022-08-07T20:00:35.878Z,6.03
2022-08-07T20:03:33.979Z,6.60
2022-08-07T20:06:06.049Z,5.45
2022-08-07T20:08:48.722Z,6.60
2022-08-07T20:12:01.097Z,8.27
2022-08-07T20:14:23.202Z,6.82
2022-08-07T20:17:07.135Z,5.75
2022-08-07T20:19:49.482Z,6.20
2022-08-07T20:22:33.844Z,8.32
2022-08-07T20:25:12.827Z,10.68
2022-08-07T20:27:58.562Z,8.57
2022-08-07T20:30:47.054Z,5.75
2022-08-07T20:33:36.271Z,5.35
2022-08-07T20:36:10.221Z,5.95
2022-08-07T20:38:59.818Z,5.35
2022-08-07T20:41:38.187Z,5.13
2022-08-07T20:44:12.776Z,4.78
2022-08-07T20:46:45.675Z,5.00
2022-08-07T20:49:59.076Z,6.55
2022-08-07T20:52:29.855Z,9.10
2022-08-07T20:55:14.437Z,10.65
2022-08-07T20:57:59.887Z,7.38
2022-08-07T21:00:45.521Z,7.80
2022-08-07T21:03:23.203Z,3.85
2022-08-07T21:06:21.752Z,2.65
2022-08-07T21:09:13.632Z,3.25
2022-08-07T21:11:50.894Z,3.17
2022-08-07T21:18:01.849Z,2.67
2022-08-07T21:20:07.366Z,2.53
2022-08-07T21:22:51.131Z,3.78
2022-08-07T21:25:56.352Z,3.05
2022-08-07T21:29:12.947Z,3.88
2022-08-07T21:32:46.755Z,3.13
2022-08-07T21:35:11.246Z,3.17
2022-08-07T21:37:58.580Z,5.15
2022-08-07T21:41:11.045Z,4.30
2022-08-07T21:43:55.779Z,3.83
2022-08-07T21:46:33.075Z,3.22
2022-08-07T21:50:02.396Z,3.20
2022-08-07T21:52:54.356Z,3.25
2022-08-07T21:55:33.130Z,3.50
2022-08-07T21:58:37.063Z,3.25
2022-08-07T22:02:04.396Z,3.70
2022-08-07T22:04:30.215Z,3.00
2022-08-07T22:07:31.848Z,3.15
2022-08-07T22:10:21.326Z,3.17
2022-08-07T22:13:02.322Z,3.08
2022-08-07T22:16:44.691Z,5.22
2022-08-07T22:19:07.422Z,3.25
2022-08-07T22:22:01.865Z,5.50
2022-08-07T22:25:08.219Z,5.32
2022-08-07T22:28:29.599Z,5.47
2022-08-07T22:30:54.916Z,6.93
2022-08-07T22:33:52.632Z,7.32
2022-08-07T22:36:33.105Z,6.38
2022-08-07T22:39:52.529Z,5.00
2022-08-07T22:42:30.474Z,5.70
2022-08-07T22:45:11.109Z,6.88
2022-08-07T22:48:54.828Z,11.98
2022-08-07T22:51:51.982Z,5.53
2022-08-07T22:54:48.866Z,5.40
2022-08-07T22:57:40.914Z,5.45
2022-08-07T23:00:28.210Z,6.20
2022-08-07T23:03:28.285Z,8.32
2022-08-07T23:06:22.237Z,8.20
2022-08-07T23:10:00.618Z,9.73
2022-08-07T23:12:46.724Z,6.63
2022-08-07T23:16:07.181Z,6.38
2022-08-07T23:18:42.530Z,4.90
2022-08-07T23:21:36.435Z,6.50
2022-08-07T23:24:17.032Z,5.88
2022-08-07T23:27:33.512Z,9.48
2022-08-07T23:30:37.032Z,8.35
2022-08-07T23:34:36.600Z,7.53
2022-08-07T23:36:43.242Z,6.35
2022-08-07T23:39:26.173Z,11.57
2022-08-07T23:42:25.557Z,12.57
2022-08-07T23:45:15.158Z,6.28
2022-08-07T23:48:15.628Z,19.27
2022-08-07T23:51:03.016Z,9.50
2022-08-07T23:53:51.825Z,9.02
2022-08-07T23:56:39.078Z,7.13
